sensor_id;sensor_type;location;lat;lon;timestamp;pressure;altitude;pressure_sealevel;temperature;humidity
9249;BME280;4660;41.768;26.198;2022-08-01T00:01:12;100441.53;;;22.43;100.00
9249;BME280;4660;41.768;26.198;2022-08-01T00:03:37;100436.97;;;22.37;100.00
9249;BME280;4660;41.768;26.198;2022-08-01T00:06:03;100435.56;;;22.28;100.00
9249;BME280;4660;41.768;26.198;2022-08-01T00:08:29;100429.66;;;22.31;100.00
9249;BME280;4660;41.768;26.198;2022-08-01T00:10:54;100432.88;;;22.21;100.00
9249;BME280;4660;41.768;26.198;2022-08-01T00:13:20;100440.44;;;22.25;100.00
9249;BME280;4660;41.768;26.198;2022-08-01T00:15:45;100428.59;;;22.00;100.00
9249;BME280;4660;41.768;26.198;2022-08-01T00:18:11;100437.38;;;21.84;100.00
9249;BME280;4660;41.768;26.198;2022-08-01T00:20:37;100412.53;;;21.79;100.00
9249;BME280;4660;41.768;26.198;2022-08-01T00:23:03;100435.84;;;21.94;100.00
9249;BME280;4660;41.768;26.198;2022-08-01T00:25:28;100434.03;;;21.82;100.00
9249;BME280;4660;41.768;26.198;2022-08-01T00:27:54;100426.50;;;21.70;100.00
9249;BME280;4660;41.768;26.198;2022-08-01T00:30:19;100432.91;;;21.89;100.00
9249;BME280;4660;41.768;26.198;2022-08-01T00:32:45;100425.75;;;21.88;100.00
9249;BME280;4660;41.768;26.198;2022-08-01T00:35:11;100410.50;;;21.74;100.00
9249;BME280;4660;41.768;26.198;2022-08-01T00:37:37;100418.31;;;21.70;100.00
9249;BME280;4660;41.768;26.198;2022-08-01T00:40:02;100402.06;;;21.76;100.00
9249;BME280;4660;41.768;26.198;2022-08-01T00:42:28;100407.84;;;21.86;100.00
9249;BME280;4660;41.768;26.198;2022-08-01T00:44:54;100413.88;;;22.01;100.00
9249;BME280;4660;41.768;26.198;2022-08-01T00:47:19;100409.72;;;21.92;100.00
9249;BME280;4660;41.768;26.198;2022-08-01T00:49:45;100425.72;;;21.95;100.00
9249;BME280;4660;41.768;26.198;2022-08-01T00:52:10;100427.66;;;21.88;100.00
9249;BME280;4660;41.768;26.198;2022-08-01T00:54:36;100404.13;;;21.80;100.00
9249;BME280;4660;41.768;26.198;2022-08-01T00:57:02;100410.44;;;21.81;100.00
9249;BME280;4660;41.768;26.198;2022-08-01T00:59:28;100419.59;;;21.93;100.00
9249;BME280;4660;41.768;26.198;2022-08-01T01:01:54;100405.19;;;21.79;100.00
9249;BME280;4660;41.768;26.198;2022-08-01T01:04:20;100405.84;;;21.75;100.00
9249;BME280;4660;41.768;26.198;2022-08-01T01:09:26;100403.31;;;21.80;100.00
9249;BME280;4660;41.768;26.198;2022-08-01T01:14:56;100420.47;;;21.93;100.00
9249;BME280;4660;41.768;26.198;2022-08-01T01:17:32;100404.00;;;21.68;100.00
9249;BME280;4660;41.768;26.198;2022-08-01T01:20:00;100422.84;;;21.83;100.00
9249;BME280;4660;41.768;26.198;2022-08-01T01:30:36;100407.66;;;21.56;100.00
9249;BME280;4660;41.768;26.198;2022-08-01T01:33:06;100397.22;;;21.46;100.00
9249;BME280;4660;41.768;26.198;2022-08-01T01:35:37;100397.16;;;21.53;100.00
9249;BME280;4660;41.768;26.198;2022-08-01T01:38:18;100407.66;;;21.56;100.00
9249;BME280;4660;41.768;26.198;2022-08-01T01:40:46;100395.69;;;21.50;100.00
9249;BME280;4660;41.768;26.198;2022-08-01T01:43:14;100412.25;;;21.62;100.00
9249;BME280;4660;41.768;26.198;2022-08-01T01:45:41;100405.81;;;21.81;100.00
9249;BME280;4660;41.768;26.198;2022-08-01T01:48:10;100406.59;;;21.88;100.00
9249;BME280;4660;41.768;26.198;2022-08-01T01:50:38;100409.19;;;21.77;100.00
9249;BME280;4660;41.768;26.198;2022-08-01T01:53:05;100402.09;;;21.69;100.00
9249;BME280;4660;41.768;26.198;2022-08-01T01:55:32;100401.25;;;21.68;100.00
9249;BME280;4660;41.768;26.198;2022-08-01T02:00:26;100403.53;;;21.71;100.00
9249;BME280;4660;41.768;26.198;2022-08-01T02:02:53;100403.72;;;21.77;100.00
9249;BME280;4660;41.768;26.198;2022-08-01T02:05:22;100402.22;;;21.81;100.00
9249;BME280;4660;41.768;26.198;2022-08-01T02:07:49;100403.69;;;21.83;100.00
9249;BME280;4660;41.768;26.198;2022-08-01T02:10:17;100402.06;;;22.01;100.00
9249;BME280;4660;41.768;26.198;2022-08-01T02:12:43;100403.69;;;21.83;100.00
9249;BME280;4660;41.768;26.198;2022-08-01T02:15:12;100389.78;;;21.53;100.00
9249;BME280;4660;41.768;26.198;2022-08-01T02:17:45;100387.06;;;21.53;100.00
9249;BME280;4660;41.768;26.198;2022-08-01T02:20:12;100387.84;;;21.60;100.00
9249;BME280;4660;41.768;26.198;2022-08-01T02:22:46;100392.38;;;21.41;100.00
9249;BME280;4660;41.768;26.198;2022-08-01T02:27:56;100393.88;;;21.69;100.00
9249;BME280;4660;41.768;26.198;2022-08-01T02:30:29;100391.50;;;21.79;100.00
9249;BME280;4660;41.768;26.198;2022-08-01T02:33:04;100405.19;;;21.79;100.00
9249;BME280;4660;41.768;26.198;2022-08-01T02:35:34;100375.69;;;21.50;100.00
9249;BME280;4660;41.768;26.198;2022-08-01T02:38:01;100394.16;;;21.86;100.00
9249;BME280;4660;41.768;26.198;2022-08-01T02:40:32;100394.03;;;21.81;100.00
9249;BME280;4660;41.768;26.198;2022-08-01T02:42:59;100394.91;;;21.75;100.00
9249;BME280;4660;41.768;26.198;2022-08-01T02:45:26;100393.63;;;21.46;100.00
9249;BME280;4660;41.768;26.198;2022-08-01T02:47:57;100381.06;;;21.38;100.00
9249;BME280;4660;41.768;26.198;2022-08-01T02:50:25;100391.38;;;21.36;100.00
9249;BME280;4660;41.768;26.198;2022-08-01T02:52:52;100391.47;;;21.54;100.00
9249;BME280;4660;41.768;26.198;2022-08-01T02:55:20;100387.97;;;21.72;100.00
9249;BME280;4660;41.768;26.198;2022-08-01T02:57:46;100391.59;;;21.66;100.00
9249;BME280;4660;41.768;26.198;2022-08-01T03:00:17;100400.13;;;21.51;100.00
9249;BME280;4660;41.768;26.198;2022-08-01T03:02:44;100389.59;;;21.48;100.00
9249;BME280;4660;41.768;26.198;2022-08-01T03:05:13;100398.00;;;21.53;100.00
9249;BME280;4660;41.768;26.198;2022-08-01T03:07:41;100402.50;;;21.73;100.00
9249;BME280;4660;41.768;26.198;2022-08-01T03:10:08;100402.91;;;21.45;100.00
9249;BME280;4660;41.768;26.198;2022-08-01T03:12:36;100398.44;;;21.50;100.00
9249;BME280;4660;41.768;26.198;2022-08-01T03:15:04;100397.03;;;21.41;100.00
9249;BME280;4660;41.768;26.198;2022-08-01T03:17:31;100402.22;;;21.49;100.00
9249;BME280;4660;41.768;26.198;2022-08-01T03:19:58;100403.06;;;21.50;100.00
9249;BME280;4660;41.768;26.198;2022-08-01T03:22:27;100411.03;;;21.58;100.00
9249;BME280;4660;41.768;26.198;2022-08-01T03:24:56;100426.41;;;21.84;100.00
9249;BME280;4660;41.768;26.198;2022-08-01T03:27:25;100418.31;;;21.70;100.00
9249;BME280;4660;41.768;26.198;2022-08-01T03:29:51;100413.94;;;21.63;100.00
9249;BME280;4660;41.768;26.198;2022-08-01T03:32:21;100414.91;;;21.43;100.00
9249;BME280;4660;41.768;26.198;2022-08-01T03:34:47;100412.00;;;21.38;100.00
9249;BME280;4660;41.768;26.198;2022-08-01T03:37:28;100407.63;;;21.31;100.00
9249;BME280;4660;41.768;26.198;2022-08-01T03:40:02;100412.50;;;21.15;100.00
9249;BME280;4660;41.768;26.198;2022-08-01T03:42:36;100418.81;;;21.16;100.00
9249;BME280;4660;41.768;26.198;2022-08-01T03:45:06;100415.41;;;21.21;100.00
9249;BME280;4660;41.768;26.198;2022-08-01T03:47:34;100413.50;;;21.21;100.00
9249;BME280;4660;41.768;26.198;2022-08-01T03:50:02;100405.88;;;20.92;100.00
9249;BME280;4660;41.768;26.198;2022-08-01T03:52:30;100418.31;;;20.87;100.00
9249;BME280;4660;41.768;26.198;2022-08-01T03:54:59;100417.06;;;20.77;100.00
9249;BME280;4660;41.768;26.198;2022-08-01T03:57:28;100413.53;;;20.70;100.00
9249;BME280;4660;41.768;26.198;2022-08-01T03:59:57;100413.09;;;20.79;100.00
9249;BME280;4660;41.768;26.198;2022-08-01T04:02:23;100415.81;;;20.86;100.00
9249;BME280;4660;41.768;26.198;2022-08-01T04:04:50;100410.13;;;20.87;100.00
9249;BME280;4660;41.768;26.198;2022-08-01T04:07:29;100422.75;;;20.82;100.00
9249;BME280;4660;41.768;26.198;2022-08-01T04:09:56;100427.78;;;20.85;100.00
9249;BME280;4660;41.768;26.198;2022-08-01T04:12:22;100411.38;;;20.85;100.00
9249;BME280;4660;41.768;26.198;2022-08-01T04:14:48;100423.06;;;21.05;100.00
9249;BME280;4660;41.768;26.198;2022-08-01T04:17:17;100423.31;;;20.97;100.00
9249;BME280;4660;41.768;26.198;2022-08-01T04:19:43;100428.78;;;20.97;100.00
9249;BME280;4660;41.768;26.198;2022-08-01T04:22:11;100435.72;;;21.00;100.00
9249;BME280;4660;41.768;26.198;2022-08-01T04:24:39;100428.97;;;21.02;100.00
9249;BME280;4660;41.768;26.198;2022-08-01T04:27:08;100432.91;;;21.20;100.00
9249;BME280;4660;41.768;26.198;2022-08-01T04:29:36;100424.03;;;21.31;100.00
9249;BME280;4660;41.768;26.198;2022-08-01T04:32:02;100427.94;;;21.48;100.00
9249;BME280;4660;41.768;26.198;2022-08-01T04:34:30;100442.97;;;21.64;100.00
9249;BME280;4660;41.768;26.198;2022-08-01T04:36:59;100425.38;;;21.53;100.00
9249;BME280;4660;41.768;26.198;2022-08-01T04:39:28;100446.94;;;21.75;100.00
9249;BME280;4660;41.768;26.198;2022-08-01T04:41:58;100440.03;;;21.97;100.00
9249;BME280;4660;41.768;26.198;2022-08-01T04:44:26;100448.53;;;22.14;100.00
9249;BME280;4660;41.768;26.198;2022-08-01T04:46:54;100454.03;;;22.39;100.00
9249;BME280;4660;41.768;26.198;2022-08-01T04:49:21;100459.44;;;22.45;100.00
9249;BME280;4660;41.768;26.198;2022-08-01T04:51:55;100459.38;;;22.52;100.00
9249;BME280;4660;41.768;26.198;2022-08-01T04:54:29;100459.94;;;22.61;100.00
9249;BME280;4660;41.768;26.198;2022-08-01T04:56:55;100461.06;;;22.71;100.00
9249;BME280;4660;41.768;26.198;2022-08-01T04:59:28;100462.97;;;22.52;100.00
9249;BME280;4660;41.768;26.198;2022-08-01T05:04:35;100441.69;;;22.48;100.00
9249;BME280;4660;41.768;26.198;2022-08-01T05:07:01;100450.16;;;22.46;100.00
9249;BME280;4660;41.768;26.198;2022-08-01T05:09:28;100458.94;;;22.55;100.00
9249;BME280;4660;41.768;26.198;2022-08-01T05:11:57;100448.97;;;22.61;100.00
9249;BME280;4660;41.768;26.198;2022-08-01T05:14:28;100457.41;;;22.59;100.00
9249;BME280;4660;41.768;26.198;2022-08-01T05:17:06;100445.91;;;22.50;100.00
9249;BME280;4660;41.768;26.198;2022-08-01T05:19:34;100456.94;;;22.62;100.00
9249;BME280;4660;41.768;26.198;2022-08-01T05:22:00;100449.34;;;22.64;100.00
9249;BME280;4660;41.768;26.198;2022-08-01T05:24:28;100458.56;;;22.70;100.00
9249;BME280;4660;41.768;26.198;2022-08-01T05:26:55;100432.06;;;22.82;100.00
9249;BME280;4660;41.768;26.198;2022-08-01T05:29:22;100454.41;;;22.86;100.00
9249;BME280;4660;41.768;26.198;2022-08-01T05:31:47;100456.22;;;22.92;100.00
9249;BME280;4660;41.768;26.198;2022-08-01T05:34:15;100466.28;;;22.98;100.00
9249;BME280;4660;41.768;26.198;2022-08-01T05:36:43;100438.84;;;22.98;100.00
9249;BME280;4660;41.768;26.198;2022-08-01T05:39:11;100373.31;;;22.53;100.00
9249;BME280;4660;41.768;26.198;2022-08-01T05:41:41;100380.69;;;22.71;100.00
9249;BME280;4660;41.768;26.198;2022-08-01T05:44:11;100445.03;;;23.12;100.00
9249;BME280;4660;41.768;26.198;2022-08-01T05:46:41;100403.78;;;23.00;100.00
9249;BME280;4660;41.768;26.198;2022-08-01T05:49:07;100472.59;;;23.35;100.00
9249;BME280;4660;41.768;26.198;2022-08-01T05:51:35;100476.81;;;23.38;100.00
9249;BME280;4660;41.768;26.198;2022-08-01T05:54:02;100466.25;;;23.34;100.00
9249;BME280;4660;41.768;26.198;2022-08-01T05:56:29;100462.31;;;23.30;100.00
9249;BME280;4660;41.768;26.198;2022-08-01T05:58:56;100479.56;;;23.49;100.00
9249;BME280;4660;41.768;26.198;2022-08-01T06:01:23;100469.44;;;23.50;100.00
9249;BME280;4660;41.768;26.198;2022-08-01T06:03:49;100457.75;;;23.73;100.00
9249;BME280;4660;41.768;26.198;2022-08-01T06:06:16;100479.97;;;23.83;100.00
9249;BME280;4660;41.768;26.198;2022-08-01T06:08:43;100471.59;;;23.78;100.00
9249;BME280;4660;41.768;26.198;2022-08-01T06:11:09;100461.25;;;23.92;100.00
9249;BME280;4660;41.768;26.198;2022-08-01T06:13:38;100445.03;;;24.13;100.00
9249;BME280;4660;41.768;26.198;2022-08-01T06:16:05;100453.75;;;24.10;100.00
9249;BME280;4660;41.768;26.198;2022-08-01T06:18:32;100462.41;;;24.49;100.00
9249;BME280;4660;41.768;26.198;2022-08-01T06:21:00;100473.91;;;24.46;100.00
9249;BME280;4660;41.768;26.198;2022-08-01T06:23:27;100480.13;;;24.53;100.00
9249;BME280;4660;41.768;26.198;2022-08-01T06:25:54;100473.56;;;24.66;100.00
9249;BME280;4660;41.768;26.198;2022-08-01T06:28:21;100473.78;;;24.64;100.00
9249;BME280;4660;41.768;26.198;2022-08-01T06:30:47;100470.31;;;24.69;100.00
9249;BME280;4660;41.768;26.198;2022-08-01T06:33:14;100471.22;;;24.98;100.00
9249;BME280;4660;41.768;26.198;2022-08-01T06:35:40;100466.38;;;25.29;100.00
9249;BME280;4660;41.768;26.198;2022-08-01T06:38:06;100428.28;;;25.09;100.00
9249;BME280;4660;41.768;26.198;2022-08-01T06:40:33;100456.81;;;25.31;100.00
9249;BME280;4660;41.768;26.198;2022-08-01T06:42:58;100442.06;;;25.37;100.00
9249;BME280;4660;41.768;26.198;2022-08-01T06:45:24;100438.28;;;25.27;100.00
9249;BME280;4660;41.768;26.198;2022-08-01T06:47:57;100438.53;;;25.25;100.00
9249;BME280;4660;41.768;26.198;2022-08-01T06:50:44;100431.69;;;25.28;100.00
9249;BME280;4660;41.768;26.198;2022-08-01T06:53:11;100430.13;;;25.32;100.00
9249;BME280;4660;41.768;26.198;2022-08-01T06:55:54;100432.91;;;25.48;100.00
9249;BME280;4660;41.768;26.198;2022-08-01T06:58:42;100423.75;;;25.60;100.00
9249;BME280;4660;41.768;26.198;2022-08-01T07:01:18;100414.81;;;25.52;100.00
9249;BME280;4660;41.768;26.198;2022-08-01T07:03:48;100391.53;;;25.60;79.63
9249;BME280;4660;41.768;26.198;2022-08-01T07:06:16;100405.28;;;25.72;78.64
9249;BME280;4660;41.768;26.198;2022-08-01T07:08:43;100417.00;;;25.79;77.05
9249;BME280;4660;41.768;26.198;2022-08-01T07:11:10;100389.22;;;25.69;78.48
9249;BME280;4660;41.768;26.198;2022-08-01T07:13:38;100396.84;;;25.95;76.45
9249;BME280;4660;41.768;26.198;2022-08-01T07:16:05;100395.78;;;25.96;77.38
9249;BME280;4660;41.768;26.198;2022-08-01T07:18:31;100394.88;;;26.08;76.53
9249;BME280;4660;41.768;26.198;2022-08-01T07:20:59;100378.47;;;26.18;76.74
9249;BME280;4660;41.768;26.198;2022-08-01T07:28:56;100323.88;;;26.20;64.99
9249;BME280;4660;41.768;26.198;2022-08-01T07:31:54;100394.88;;;26.63;67.88
9249;BME280;4660;41.768;26.198;2022-08-01T07:34:42;100365.41;;;26.69;64.41
9249;BME280;4660;41.768;26.198;2022-08-01T07:39:55;100367.72;;;26.77;62.92
9249;BME280;4660;41.768;26.198;2022-08-01T07:42:27;100302.63;;;26.37;58.41
9249;BME280;4660;41.768;26.198;2022-08-01T07:44:54;100295.78;;;26.61;59.37
9249;BME280;4660;41.768;26.198;2022-08-01T07:52:52;100406.59;;;27.41;53.71
9249;BME280;4660;41.768;26.198;2022-08-01T07:55:43;100395.63;;;27.46;51.67
9249;BME280;4660;41.768;26.198;2022-08-01T07:58:11;100365.06;;;27.31;51.91
9249;BME280;4660;41.768;26.198;2022-08-01T08:00:48;100401.00;;;27.58;52.45
9249;BME280;4660;41.768;26.198;2022-08-01T08:03:37;100355.47;;;27.11;49.31
9249;BME280;4660;41.768;26.198;2022-08-01T08:06:45;100385.75;;;27.55;52.17
9249;BME280;4660;41.768;26.198;2022-08-01T08:09:37;100389.13;;;27.62;51.08
9249;BME280;4660;41.768;26.198;2022-08-01T08:12:24;100357.69;;;27.41;51.31
9249;BME280;4660;41.768;26.198;2022-08-01T08:15:22;100387.69;;;27.82;49.88
9249;BME280;4660;41.768;26.198;2022-08-01T08:17:49;100367.78;;;27.85;50.73
9249;BME280;4660;41.768;26.198;2022-08-01T08:20:17;100371.81;;;28.04;48.51
9249;BME280;4660;41.768;26.198;2022-08-01T08:22:48;100375.59;;;27.93;46.86
9249;BME280;4660;41.768;26.198;2022-08-01T08:25:14;100374.41;;;28.16;47.07
9249;BME280;4660;41.768;26.198;2022-08-01T08:27:52;100375.75;;;28.13;47.50
9249;BME280;4660;41.768;26.198;2022-08-01T08:40:56;100375.56;;;28.67;42.42
9249;BME280;4660;41.768;26.198;2022-08-01T08:43:24;100277.84;;;28.14;41.34
9249;BME280;4660;41.768;26.198;2022-08-01T08:46:14;100367.28;;;28.77;41.27
9249;BME280;4660;41.768;26.198;2022-08-01T08:48:46;100345.72;;;28.79;41.66
9249;BME280;4660;41.768;26.198;2022-08-01T08:51:28;100359.09;;;28.98;43.47
9249;BME280;4660;41.768;26.198;2022-08-01T08:54:00;100357.38;;;28.87;43.14
9249;BME280;4660;41.768;26.198;2022-08-01T08:56:30;100358.72;;;28.74;41.10
9249;BME280;4660;41.768;26.198;2022-08-01T08:59:11;100338.19;;;28.70;40.62
9249;BME280;4660;41.768;26.198;2022-08-01T09:01:38;100338.84;;;28.92;40.50
9249;BME280;4660;41.768;26.198;2022-08-01T09:04:05;100345.31;;;29.18;39.91
9249;BME280;4660;41.768;26.198;2022-08-01T09:06:33;100347.00;;;29.24;39.77
9249;BME280;4660;41.768;26.198;2022-08-01T09:09:01;100343.09;;;29.15;39.35
9249;BME280;4660;41.768;26.198;2022-08-01T09:11:28;100344.75;;;29.26;38.70
9249;BME280;4660;41.768;26.198;2022-08-01T09:14:15;100332.03;;;29.36;39.99
9249;BME280;4660;41.768;26.198;2022-08-01T09:17:10;100331.22;;;29.30;40.46
9249;BME280;4660;41.768;26.198;2022-08-01T09:20:27;100340.91;;;29.43;39.18
9249;BME280;4660;41.768;26.198;2022-08-01T09:23:01;100349.22;;;29.43;39.60
9249;BME280;4660;41.768;26.198;2022-08-01T09:26:13;100321.78;;;29.46;38.11
9249;BME280;4660;41.768;26.198;2022-08-01T09:28:43;100307.66;;;29.48;39.24
9249;BME280;4660;41.768;26.198;2022-08-01T09:31:38;100335.94;;;29.45;40.17
9249;BME280;4660;41.768;26.198;2022-08-01T09:34:28;100322.06;;;29.45;40.73
9249;BME280;4660;41.768;26.198;2022-08-01T09:37:01;100309.88;;;29.46;38.60
9249;BME280;4660;41.768;26.198;2022-08-01T09:39:32;100289.06;;;29.33;38.99
9249;BME280;4660;41.768;26.198;2022-08-01T09:42:29;100315.94;;;29.43;38.91
9249;BME280;4660;41.768;26.198;2022-08-01T09:44:56;100286.03;;;29.29;40.72
9249;BME280;4660;41.768;26.198;2022-08-01T09:47:37;100330.44;;;29.65;39.94
9249;BME280;4660;41.768;26.198;2022-08-01T09:50:05;100340.09;;;29.57;39.02
9249;BME280;4660;41.768;26.198;2022-08-01T09:52:33;100321.50;;;29.48;38.09
9249;BME280;4660;41.768;26.198;2022-08-01T09:55:05;100321.84;;;29.67;37.73
9249;BME280;4660;41.768;26.198;2022-08-01T09:57:33;100317.66;;;29.90;38.50
9249;BME280;4660;41.768;26.198;2022-08-01T10:00:01;100287.72;;;29.76;37.87
9249;BME280;4660;41.768;26.198;2022-08-01T10:02:44;100319.59;;;29.89;38.29
9249;BME280;4660;41.768;26.198;2022-08-01T10:05:34;100296.56;;;29.78;38.04
9249;BME280;4660;41.768;26.198;2022-08-01T10:08:06;100319.56;;;29.99;38.58
9249;BME280;4660;41.768;26.198;2022-08-01T10:10:36;100336.50;;;29.98;38.81
9249;BME280;4660;41.768;26.198;2022-08-01T10:13:24;100291.56;;;29.96;37.46
9249;BME280;4660;41.768;26.198;2022-08-01T10:15:51;100310.69;;;30.18;37.91
9249;BME280;4660;41.768;26.198;2022-08-01T10:18:19;100307.63;;;30.19;36.36
9249;BME280;4660;41.768;26.198;2022-08-01T10:20:47;100317.66;;;30.15;37.77
9249;BME280;4660;41.768;26.198;2022-08-01T10:23:16;100320.94;;;30.27;35.92
9249;BME280;4660;41.768;26.198;2022-08-01T10:25:52;100298.47;;;30.13;36.46
9249;BME280;4660;41.768;26.198;2022-08-01T10:28:21;100308.75;;;30.23;38.09
9249;BME280;4660;41.768;26.198;2022-08-01T10:30:50;100321.97;;;30.52;38.35
9249;BME280;4660;41.768;26.198;2022-08-01T10:33:17;100315.81;;;30.65;36.32
9249;BME280;4660;41.768;26.198;2022-08-01T10:35:45;100312.53;;;30.58;36.38
9249;BME280;4660;41.768;26.198;2022-08-01T10:38:13;100316.38;;;30.67;35.95
9249;BME280;4660;41.768;26.198;2022-08-01T10:40:41;100279.75;;;30.55;36.33
9249;BME280;4660;41.768;26.198;2022-08-01T10:43:12;100280.81;;;30.74;34.63
9249;BME280;4660;41.768;26.198;2022-08-01T10:45:42;100307.03;;;31.02;33.97
9249;BME280;4660;41.768;26.198;2022-08-01T10:48:33;100311.88;;;30.86;34.66
9249;BME280;4660;41.768;26.198;2022-08-01T10:51:24;100304.25;;;31.02;35.12
9249;BME280;4660;41.768;26.198;2022-08-01T10:54:20;100286.06;;;31.25;33.50
9249;BME280;4660;41.768;26.198;2022-08-01T10:57:11;100293.88;;;31.23;33.30
9249;BME280;4660;41.768;26.198;2022-08-01T11:00:21;100284.59;;;30.93;33.60
9249;BME280;4660;41.768;26.198;2022-08-01T11:03:08;100296.06;;;30.72;34.39
9249;BME280;4660;41.768;26.198;2022-08-01T11:05:36;100305.41;;;30.96;33.86
9249;BME280;4660;41.768;26.198;2022-08-01T11:08:22;100299.44;;;31.23;33.02
9249;BME280;4660;41.768;26.198;2022-08-01T11:11:10;100288.22;;;31.33;33.07
9249;BME280;4660;41.768;26.198;2022-08-01T11:14:03;100320.66;;;31.43;34.23
9249;BME280;4660;41.768;26.198;2022-08-01T11:27:32;100278.41;;;31.80;33.28
9249;BME280;4660;41.768;26.198;2022-08-01T11:32:55;100265.94;;;31.72;33.57
9249;BME280;4660;41.768;26.198;2022-08-01T11:35:24;100262.03;;;31.73;33.48
9249;BME280;4660;41.768;26.198;2022-08-01T11:37:53;100257.25;;;31.79;33.58
9249;BME280;4660;41.768;26.198;2022-08-01T11:40:28;100253.06;;;31.82;32.26
9249;BME280;4660;41.768;26.198;2022-08-01T11:43:26;100245.28;;;31.78;32.48
9249;BME280;4660;41.768;26.198;2022-08-01T11:45:53;100247.72;;;31.85;32.17
9249;BME280;4660;41.768;26.198;2022-08-01T11:48:28;100236.59;;;31.85;33.20
9249;BME280;4660;41.768;26.198;2022-08-01T11:50:56;100274.97;;;31.88;32.30
9249;BME280;4660;41.768;26.198;2022-08-01T11:53:22;100255.38;;;31.98;31.82
9249;BME280;4660;41.768;26.198;2022-08-01T11:55:53;100233.81;;;31.85;31.43
9249;BME280;4660;41.768;26.198;2022-08-01T11:58:24;100253.38;;;32.04;31.50
9249;BME280;4660;41.768;26.198;2022-08-01T12:01:14;100252.78;;;32.07;31.99
9249;BME280;4660;41.768;26.198;2022-08-01T12:03:40;100251.94;;;32.07;32.03
9249;BME280;4660;41.768;26.198;2022-08-01T12:06:05;100232.56;;;32.20;31.43
9249;BME280;4660;41.768;26.198;2022-08-01T12:08:53;100231.94;;;32.52;31.29
9249;BME280;4660;41.768;26.198;2022-08-01T12:11:44;100239.47;;;32.71;31.33
9249;BME280;4660;41.768;26.198;2022-08-01T12:14:31;100250.78;;;32.98;31.18
9249;BME280;4660;41.768;26.198;2022-08-01T12:20:18;100231.88;;;32.76;31.52
9249;BME280;4660;41.768;26.198;2022-08-01T12:22:45;100220.31;;;32.88;32.10
9249;BME280;4660;41.768;26.198;2022-08-01T12:25:14;100219.47;;;32.88;30.59
9249;BME280;4660;41.768;26.198;2022-08-01T12:38:14;100206.75;;;33.33;31.17
9249;BME280;4660;41.768;26.198;2022-08-01T12:41:44;100202.56;;;33.17;30.20
9249;BME280;4660;41.768;26.198;2022-08-01T13:00:06;100207.75;;;34.02;28.49
9249;BME280;4660;41.768;26.198;2022-08-01T13:03:09;100210.00;;;34.00;30.22
9249;BME280;4660;41.768;26.198;2022-08-01T13:05:55;100197.47;;;33.84;29.04
9249;BME280;4660;41.768;26.198;2022-08-01T13:08:42;100195.13;;;33.91;30.09
9249;BME280;4660;41.768;26.198;2022-08-01T13:11:42;100187.22;;;33.65;29.51
9249;BME280;4660;41.768;26.198;2022-08-01T13:22:19;100189.66;;;33.39;28.92
9249;BME280;4660;41.768;26.198;2022-08-01T13:33:19;100191.13;;;33.51;31.00
9249;BME280;4660;41.768;26.198;2022-08-01T13:38:39;100167.69;;;33.33;30.37
9249;BME280;4660;41.768;26.198;2022-08-01T13:45:39;100113.63;;;33.61;29.52
9249;BME280;4660;41.768;26.198;2022-08-01T13:48:10;100178.16;;;33.87;29.55
9249;BME280;4660;41.768;26.198;2022-08-01T13:50:36;100198.81;;;34.00;30.40
9249;BME280;4660;41.768;26.198;2022-08-01T13:53:03;100197.19;;;33.99;29.96
9249;BME280;4660;41.768;26.198;2022-08-01T13:55:31;100184.63;;;33.83;29.77
9249;BME280;4660;41.768;26.198;2022-08-01T13:57:57;100184.88;;;34.00;30.26
9249;BME280;4660;41.768;26.198;2022-08-01T14:00:48;100190.84;;;33.80;30.32
9249;BME280;4660;41.768;26.198;2022-08-01T14:03:23;100190.03;;;33.14;31.31
9249;BME280;4660;41.768;26.198;2022-08-01T14:05:50;100183.06;;;32.79;32.19
9249;BME280;4660;41.768;26.198;2022-08-01T14:08:16;100179.38;;;33.02;31.93
9249;BME280;4660;41.768;26.198;2022-08-01T14:10:43;100163.34;;;33.27;31.19
9249;BME280;4660;41.768;26.198;2022-08-01T14:13:11;100191.03;;;33.70;28.91
9249;BME280;4660;41.768;26.198;2022-08-01T14:15:36;100167.47;;;33.76;30.15
9249;BME280;4660;41.768;26.198;2022-08-01T14:18:02;100170.63;;;34.02;29.30
9249;BME280;4660;41.768;26.198;2022-08-01T14:20:28;100162.75;;;34.04;28.94
9249;BME280;4660;41.768;26.198;2022-08-01T14:22:53;100187.25;;;34.20;28.85
9249;BME280;4660;41.768;26.198;2022-08-01T14:25:19;100177.63;;;34.13;28.59
9249;BME280;4660;41.768;26.198;2022-08-01T14:27:45;100174.63;;;34.37;27.97
9249;BME280;4660;41.768;26.198;2022-08-01T14:30:11;100189.66;;;34.63;27.80
9249;BME280;4660;41.768;26.198;2022-08-01T14:32:37;100188.81;;;34.76;28.28
9249;BME280;4660;41.768;26.198;2022-08-01T14:35:06;100173.16;;;34.53;28.50
9249;BME280;4660;41.768;26.198;2022-08-01T14:37:32;100193.00;;;34.65;28.33
9249;BME280;4660;41.768;26.198;2022-08-01T14:40:06;100132.88;;;33.90;28.48
9249;BME280;4660;41.768;26.198;2022-08-01T14:42:35;100182.91;;;33.87;28.81
9249;BME280;4660;41.768;26.198;2022-08-01T14:45:00;100176.72;;;33.90;28.80
9249;BME280;4660;41.768;26.198;2022-08-01T14:47:26;100185.41;;;34.02;28.84
9249;BME280;4660;41.768;26.198;2022-08-01T14:49:51;100192.22;;;33.96;28.79
9249;BME280;4660;41.768;26.198;2022-08-01T14:52:18;100172.13;;;33.66;28.50
9249;BME280;4660;41.768;26.198;2022-08-01T14:54:45;100185.78;;;33.82;28.61
9249;BME280;4660;41.768;26.198;2022-08-01T14:57:12;100204.59;;;33.76;28.42
9249;BME280;4660;41.768;26.198;2022-08-01T14:59:38;100195.72;;;33.88;28.92
9249;BME280;4660;41.768;26.198;2022-08-01T15:02:04;100195.53;;;33.98;27.65
9249;BME280;4660;41.768;26.198;2022-08-01T15:04:30;100191.97;;;33.79;28.16
9249;BME280;4660;41.768;26.198;2022-08-01T15:06:56;100205.41;;;33.77;28.44
9249;BME280;4660;41.768;26.198;2022-08-01T15:09:22;100198.97;;;33.62;28.65
9249;BME280;4660;41.768;26.198;2022-08-01T15:11:48;100204.66;;;33.57;29.54